Time;durP1;ratioP1;P1;durP2;ratioP2;P2;SDS_P1;SDS_P2;PMS_P1;PMS_P2;Temp;Humidity;BMP_temperature;BMP_pressure;BME280_temperature;BME280_humidity;BME280_pressure;Samples;Min_cycle;Max_cycle;Signal;HPM_P1;HPM_P2
2022/12/06 00:00:05;;;;;;;18.23;14.80;;;6.70;99.90;;;;;;4981661;28;20168;-83
2022/12/06 00:02:31;;;;;;;17.40;14.73;;;6.60;99.90;;;;;;4987927;28;20198;-83
2022/12/06 00:04:58;;;;;;;17.27;13.30;;;6.70;99.90;;;;;;4996800;28;20224;-85
2022/12/06 00:07:24;;;;;;;17.57;13.40;;;6.70;99.90;;;;;;4999331;28;20258;-83
2022/12/06 00:09:50;;;;;;;16.50;13.27;;;6.60;99.90;;;;;;4997054;28;20211;-85
2022/12/06 00:12:16;;;;;;;16.23;13.00;;;6.80;99.90;;;;;;5005429;28;20195;-85
2022/12/06 00:14:42;;;;;;;16.67;12.33;;;6.70;99.90;;;;;;5009490;28;20234;-83
2022/12/06 00:17:08;;;;;;;17.20;12.57;;;6.70;99.90;;;;;;5017084;28;20231;-80
2022/12/06 00:19:34;;;;;;;14.20;11.73;;;6.80;99.90;;;;;;5005823;28;20274;-81
2022/12/06 00:22:00;;;;;;;14.83;13.03;;;6.70;99.90;;;;;;5005291;28;20167;-81
2022/12/06 00:24:29;;;;;;;15.17;11.27;;;6.70;99.90;;;;;;5003771;28;20174;-85
2022/12/06 00:26:56;;;;;;;15.23;12.30;;;6.70;99.90;;;;;;4998336;28;20187;-83
2022/12/06 00:29:22;;;;;;;14.73;12.47;;;6.70;99.90;;;;;;4999583;28;20206;-83
2022/12/06 00:31:49;;;;;;;15.50;13.30;;;6.70;99.90;;;;;;4998619;28;20301;-84
2022/12/06 00:34:15;;;;;;;17.77;13.80;;;6.70;99.90;;;;;;5000069;28;20183;-84
2022/12/06 00:36:41;;;;;;;15.03;13.30;;;6.70;99.90;;;;;;4996993;28;20202;-81
2022/12/06 00:39:13;;;;;;;17.00;12.90;;;6.80;99.90;;;;;;4999152;28;20219;-82
2022/12/06 00:41:39;;;;;;;17.30;12.30;;;6.80;99.90;;;;;;4998158;28;20182;-84
2022/12/06 00:44:06;;;;;;;14.67;11.90;;;6.70;99.90;;;;;;5002293;28;20182;-83
2022/12/06 00:46:35;;;;;;;14.93;11.93;;;6.70;99.90;;;;;;5009992;28;20170;-84
2022/12/06 00:49:05;;;;;;;14.63;11.40;;;6.60;99.90;;;;;;5010828;28;20163;-83
2022/12/06 00:51:32;;;;;;;16.30;11.77;;;6.50;99.90;;;;;;5001582;28;20601;-84
2022/12/06 00:53:58;;;;;;;13.57;10.77;;;6.50;99.90;;;;;;4997219;28;20171;-85
2022/12/06 00:56:25;;;;;;;13.83;10.30;;;6.50;99.90;;;;;;5002687;28;20182;-85
2022/12/06 00:58:50;;;;;;;13.37;9.43;;;6.50;99.90;;;;;;4998552;28;20711;-85
2022/12/06 01:01:29;;;;;;;11.67;9.80;;;6.50;99.90;;;;;;4997868;28;20322;-83
2022/12/06 01:03:57;;;;;;;11.80;9.20;;;6.40;99.90;;;;;;4996816;28;20182;-85
2022/12/06 01:06:26;;;;;;;11.50;9.47;;;6.40;99.90;;;;;;4999445;28;20672;-82
2022/12/06 01:08:54;;;;;;;12.47;9.57;;;6.40;99.90;;;;;;4981664;28;20167;-84
2022/12/06 01:11:20;;;;;;;12.90;10.00;;;6.40;99.90;;;;;;4998308;28;20211;-85
2022/12/06 01:13:47;;;;;;;11.23;9.13;;;6.50;99.90;;;;;;4996085;28;20219;-83
2022/12/06 01:16:19;;;;;;;11.53;8.47;;;6.30;99.90;;;;;;4986960;28;20184;-85
2022/12/06 01:18:45;;;;;;;10.73;8.93;;;6.30;99.90;;;;;;4978583;28;20179;-85
2022/12/06 01:21:14;;;;;;;12.10;10.27;;;6.40;99.90;;;;;;4980867;28;20197;-83
2022/12/06 01:23:42;;;;;;;13.07;9.87;;;6.30;99.90;;;;;;4981477;28;20160;-83
2022/12/06 01:26:16;;;;;;;10.70;9.33;;;6.40;99.90;;;;;;4979092;28;20171;-84
2022/12/06 01:28:41;;;;;;;11.67;9.60;;;6.50;99.90;;;;;;4991143;28;20186;-85
2022/12/06 01:31:07;;;;;;;10.40;8.57;;;6.40;99.90;;;;;;4997202;28;20200;-82
2022/12/06 01:33:34;;;;;;;13.03;9.60;;;6.50;99.90;;;;;;5000363;28;20172;-84
2022/12/06 01:36:00;;;;;;;10.07;8.63;;;6.40;99.90;;;;;;4990803;28;20192;-85
2022/12/06 01:38:27;;;;;;;10.83;8.27;;;6.40;99.90;;;;;;4979834;28;20177;-84
2022/12/06 01:40:59;;;;;;;12.73;9.47;;;6.40;99.90;;;;;;4979541;28;20171;-82
2022/12/06 01:43:44;;;;;;;11.13;9.03;;;6.50;99.90;;;;;;4979057;28;20624;-82
2022/12/06 01:46:20;;;;;;;10.83;8.80;;;6.50;99.90;;;;;;4977902;28;20200;-82
2022/12/06 01:48:49;;;;;;;11.13;9.23;;;6.40;99.90;;;;;;4979339;28;20175;-84
2022/12/06 01:51:16;;;;;;;11.70;8.27;;;6.30;99.90;;;;;;4962419;28;20216;-84
2022/12/06 01:53:44;;;;;;;11.70;9.13;;;6.40;99.90;;;;;;4979238;28;20215;-85
2022/12/06 01:56:13;;;;;;;9.23;8.23;;;6.40;99.90;;;;;;4963128;28;20184;-84
2022/12/06 01:58:44;;;;;;;12.67;8.07;;;6.40;99.90;;;;;;4981909;28;20219;-84
2022/12/06 02:01:11;;;;;;;10.07;8.20;;;6.40;99.90;;;;;;4977090;28;20183;-84
2022/12/06 02:03:37;;;;;;;11.63;8.40;;;6.40;99.90;;;;;;4977498;28;20250;-84
2022/12/06 02:06:05;;;;;;;10.13;8.50;;;6.40;99.90;;;;;;4978355;28;20227;-83
2022/12/06 02:08:31;;;;;;;11.33;8.63;;;6.40;99.90;;;;;;4979454;28;20234;-84
2022/12/06 02:11:00;;;;;;;9.80;8.13;;;6.60;99.90;;;;;;4978335;28;20192;-84
2022/12/06 02:13:26;;;;;;;9.43;8.10;;;6.70;99.90;;;;;;4960537;28;20195;-84
2022/12/06 02:16:23;;;;;;;11.47;9.30;;;6.50;99.90;;;;;;4981115;28;20180;-84
2022/12/06 02:19:17;;;;;;;11.33;8.53;;;6.50;99.90;;;;;;4976043;28;20168;-84
2022/12/06 02:21:45;;;;;;;9.50;7.93;;;6.50;99.90;;;;;;4975744;28;20271;-85
2022/12/06 02:24:27;;;;;;;11.00;8.53;;;6.60;99.90;;;;;;4975486;28;20176;-84
2022/12/06 02:27:26;;;;;;;11.37;8.77;;;6.60;99.90;;;;;;4975495;28;20205;-83
2022/12/06 02:30:07;;;;;;;10.43;8.80;;;6.60;99.90;;;;;;4975687;28;20167;-84
2022/12/06 02:32:50;;;;;;;10.40;8.37;;;6.60;99.90;;;;;;4975224;28;20303;-83
2022/12/06 02:35:37;;;;;;;10.10;8.50;;;6.70;99.90;;;;;;4974257;28;20246;-82
2022/12/06 02:38:31;;;;;;;9.97;7.80;;;6.70;99.90;;;;;;4975212;28;20167;-82
2022/12/06 02:41:01;;;;;;;9.83;7.93;;;6.70;99.90;;;;;;4977847;28;20167;-81
2022/12/06 02:43:35;;;;;;;9.37;7.87;;;6.60;99.90;;;;;;4969123;28;20285;-80
2022/12/06 02:46:03;;;;;;;9.43;8.27;;;6.70;99.90;;;;;;4976943;28;20189;-80
2022/12/06 02:48:32;;;;;;;11.03;7.83;;;6.60;99.90;;;;;;4996376;28;20194;-78
2022/12/06 02:51:08;;;;;;;10.63;8.50;;;6.70;99.90;;;;;;4979834;28;20688;-80
2022/12/06 02:53:43;;;;;;;10.37;8.43;;;6.60;99.90;;;;;;4959138;28;20530;-83
2022/12/06 02:56:11;;;;;;;10.23;8.10;;;6.80;99.90;;;;;;4975137;28;20163;-83
2022/12/06 02:58:37;;;;;;;11.83;8.60;;;6.70;99.90;;;;;;4974699;28;20172;-81
2022/12/06 03:01:08;;;;;;;11.43;8.47;;;6.70;99.90;;;;;;4974155;28;20182;-81
2022/12/06 03:03:39;;;;;;;11.00;8.33;;;6.70;99.90;;;;;;4974363;28;20175;-80
2022/12/06 03:06:17;;;;;;;10.50;8.67;;;6.80;99.90;;;;;;4974548;28;20171;-80
2022/12/06 03:08:55;;;;;;;11.97;8.97;;;6.80;99.90;;;;;;4958348;28;20639;-80
2022/12/06 03:11:25;;;;;;;9.63;8.07;;;6.80;99.90;;;;;;4979129;28;20217;-84
2022/12/06 03:13:59;;;;;;;10.87;8.47;;;6.90;99.90;;;;;;4959818;28;20226;-81
2022/12/06 03:16:30;;;;;;;11.03;9.10;;;6.60;99.90;;;;;;4959216;28;20265;-83
2022/12/06 03:19:21;;;;;;;10.60;8.37;;;6.60;99.90;;;;;;4976601;28;20168;-84
2022/12/06 03:21:59;;;;;;;11.97;9.47;;;6.70;99.90;;;;;;4976038;28;20172;-83
2022/12/06 03:24:27;;;;;;;12.37;9.17;;;6.60;99.90;;;;;;4974473;28;20190;-83
2022/12/06 03:26:56;;;;;;;12.43;8.97;;;6.70;99.90;;;;;;4973251;28;20176;-85
2022/12/06 03:29:29;;;;;;;11.73;9.20;;;6.90;99.90;;;;;;4974126;28;20164;-82
2022/12/06 03:31:59;;;;;;;12.57;9.43;;;6.70;99.90;;;;;;4974270;28;20250;-84
2022/12/06 03:34:31;;;;;;;13.40;9.00;;;6.70;99.90;;;;;;4974422;28;20167;-84
2022/12/06 03:36:58;;;;;;;11.43;9.33;;;6.70;99.90;;;;;;4974706;28;20254;-82
2022/12/06 03:39:48;;;;;;;16.13;10.07;;;6.70;99.90;;;;;;4974857;28;20187;-83
2022/12/06 03:42:15;;;;;;;12.80;10.03;;;6.60;99.90;;;;;;4956864;28;20271;-85
2022/12/06 03:44:40;;;;;;;14.53;11.53;;;6.60;99.90;;;;;;4974056;28;20179;-83
2022/12/06 03:47:23;;;;;;;14.80;11.57;;;6.60;99.90;;;;;;4973528;28;20175;-84
2022/12/06 03:49:57;;;;;;;16.40;11.47;;;6.60;99.90;;;;;;4974434;28;20164;-82
2022/12/06 03:52:24;;;;;;;12.50;10.00;;;6.60;99.90;;;;;;4978239;28;20230;-83
2022/12/06 03:54:50;;;;;;;14.53;11.67;;;6.70;99.90;;;;;;4978612;28;20171;-83
2022/12/06 03:57:16;;;;;;;17.57;12.50;;;6.70;99.90;;;;;;4977886;28;20168;-83
2022/12/06 03:59:41;;;;;;;14.23;12.07;;;6.70;99.90;;;;;;4960612;28;20179;-83
2022/12/06 04:02:07;;;;;;;16.17;12.13;;;6.80;99.90;;;;;;4960512;28;20198;-84
2022/12/06 04:04:33;;;;;;;16.77;11.43;;;6.80;99.90;;;;;;4977562;28;20539;-84
2022/12/06 04:06:58;;;;;;;15.40;11.57;;;6.70;99.90;;;;;;4977135;28;20678;-84
2022/12/06 04:12:59;;;;;;;15.10;11.30;;;6.70;99.90;;;;;;4977577;28;20607;-84
2022/12/06 04:14:54;;;;;;;13.47;10.60;;;6.60;99.90;;;;;;4979606;28;20202;-83
2022/12/06 04:20:04;;;;;;;14.93;9.73;;;6.60;99.90;;;;;;5000302;28;20231;-83
2022/12/06 04:25:17;;;;;;;14.67;10.63;;;6.70;99.90;;;;;;4994119;28;20210;-83
2022/12/06 04:38:43;;;;;;;13.17;9.23;;;6.70;99.90;;;;;;4977767;28;20198;-84
2022/12/06 04:41:10;;;;;;;13.20;9.43;;;6.70;99.90;;;;;;4977944;28;20172;-84
2022/12/06 04:43:42;;;;;;;10.73;8.43;;;6.70;99.90;;;;;;4978147;28;20720;-84
2022/12/06 04:46:10;;;;;;;13.03;8.93;;;6.70;99.90;;;;;;4978605;28;20183;-83
2022/12/06 04:48:37;;;;;;;13.57;9.30;;;6.70;99.90;;;;;;4981222;28;20537;-83
2022/12/06 04:51:03;;;;;;;14.50;9.03;;;6.80;99.90;;;;;;4977118;28;20204;-80
2022/12/06 04:53:29;;;;;;;12.60;9.57;;;6.80;99.90;;;;;;4977016;28;20179;-80
2022/12/06 04:55:55;;;;;;;13.53;9.87;;;6.70;99.90;;;;;;4976043;28;20307;-81
2022/12/06 04:58:20;;;;;;;12.63;9.83;;;6.70;99.90;;;;;;4959529;28;20238;-81
2022/12/06 05:00:48;;;;;;;10.00;8.30;;;6.60;99.90;;;;;;4980085;28;20176;-80
2022/12/06 05:03:14;;;;;;;12.73;8.67;;;6.70;99.90;;;;;;4963116;28;20211;-81
2022/12/06 05:05:41;;;;;;;13.53;9.67;;;6.60;99.90;;;;;;4987549;28;20180;-84
2022/12/06 05:08:08;;;;;;;13.40;9.30;;;6.60;99.90;;;;;;4996969;28;20168;-81
2022/12/06 05:10:34;;;;;;;12.43;8.97;;;6.70;99.90;;;;;;4977567;28;20179;-81
2022/12/06 05:13:06;;;;;;;11.90;9.20;;;6.80;99.90;;;;;;4982349;28;20179;-82
2022/12/06 05:15:56;;;;;;;9.90;7.83;;;6.90;99.90;;;;;;4976700;28;20214;-81
2022/12/06 05:18:22;;;;;;;12.27;9.40;;;6.60;99.90;;;;;;4976638;28;20206;-82
2022/12/06 05:20:48;;;;;;;11.63;8.80;;;6.60;99.90;;;;;;4958861;28;20566;-84
2022/12/06 05:23:14;;;;;;;12.80;8.83;;;6.70;99.90;;;;;;4976017;28;20179;-82
2022/12/06 05:25:40;;;;;;;14.70;10.20;;;6.70;99.90;;;;;;4958916;28;20182;-83
2022/12/06 05:28:07;;;;;;;13.97;8.70;;;6.80;99.90;;;;;;4975765;28;20595;-81
2022/12/06 05:30:33;;;;;;;15.47;8.87;;;6.70;99.90;;;;;;4958489;28;20182;-81
2022/12/06 05:32:59;;;;;;;14.43;9.47;;;6.70;99.90;;;;;;4975927;28;20263;-81
2022/12/06 05:35:25;;;;;;;12.67;10.00;;;6.60;99.90;;;;;;4958445;28;20176;-81
2022/12/06 05:37:50;;;;;;;14.87;9.13;;;6.60;99.90;;;;;;4976067;28;20484;-81
2022/12/06 05:40:16;;;;;;;12.70;9.50;;;6.70;99.90;;;;;;4975279;28;20192;-82
2022/12/06 05:42:41;;;;;;;12.37;9.47;;;6.60;99.90;;;;;;4974059;28;20223;-82
2022/12/06 05:45:08;;;;;;;15.37;10.00;;;6.70;99.90;;;;;;4975399;28;20659;-83
2022/12/06 05:47:34;;;;;;;16.13;9.37;;;6.70;99.90;;;;;;4958026;28;20171;-85
2022/12/06 05:50:02;;;;;;;13.10;9.20;;;6.60;99.90;;;;;;4975919;28;20540;-85
2022/12/06 05:52:28;;;;;;;14.77;9.97;;;6.70;99.90;;;;;;4975802;28;20262;-84
2022/12/06 05:54:53;;;;;;;13.77;10.33;;;6.90;99.90;;;;;;4975617;28;20171;-83
2022/12/06 05:57:20;;;;;;;12.70;9.17;;;6.80;99.90;;;;;;4975982;28;20167;-82
2022/12/06 05:59:45;;;;;;;17.30;11.70;;;6.80;99.90;;;;;;4974376;28;20222;-84
2022/12/06 06:02:11;;;;;;;15.73;9.90;;;6.80;99.90;;;;;;4975889;28;20172;-83
2022/12/06 06:04:37;;;;;;;16.57;10.83;;;6.90;99.90;;;;;;4975475;28;20180;-84
2022/12/06 06:07:03;;;;;;;14.03;8.73;;;6.90;99.90;;;;;;4974660;28;20168;-84
2022/12/06 06:09:28;;;;;;;12.87;9.43;;;6.80;99.90;;;;;;4974989;28;20250;-84
2022/12/06 06:11:54;;;;;;;13.57;9.33;;;6.80;99.90;;;;;;4957626;28;20216;-84
2022/12/06 06:14:20;;;;;;;10.20;8.37;;;6.70;99.90;;;;;;4956816;28;20202;-84
2022/12/06 06:16:46;;;;;;;12.37;9.30;;;6.60;99.90;;;;;;4975429;28;20179;-84
2022/12/06 06:19:12;;;;;;;13.37;8.90;;;6.60;99.90;;;;;;4976001;28;20640;-84
2022/12/06 06:21:37;;;;;;;15.40;10.03;;;6.50;99.90;;;;;;4976518;28;20171;-84
2022/12/06 06:24:03;;;;;;;14.00;9.23;;;6.50;99.90;;;;;;4977760;28;20172;-83
2022/12/06 06:26:29;;;;;;;16.20;10.20;;;6.60;99.90;;;;;;4966376;28;20603;-85
2022/12/06 06:28:55;;;;;;;16.00;9.93;;;6.70;99.90;;;;;;4984975;28;20171;-85
2022/12/06 06:31:21;;;;;;;13.63;9.93;;;6.80;99.90;;;;;;4975692;28;20211;-85
2022/12/06 06:33:47;;;;;;;12.90;9.67;;;6.60;99.90;;;;;;4975451;28;20217;-84
2022/12/06 06:36:13;;;;;;;17.47;10.37;;;6.50;99.90;;;;;;4974679;28;20179;-85
2022/12/06 06:38:38;;;;;;;12.73;9.90;;;6.60;99.90;;;;;;4957952;28;20226;-84
2022/12/06 06:41:05;;;;;;;17.13;10.43;;;6.70;99.90;;;;;;4957788;28;20175;-84
2022/12/06 06:43:31;;;;;;;17.40;9.63;;;6.80;99.90;;;;;;4976825;28;20183;-85
2022/12/06 06:45:59;;;;;;;13.57;8.97;;;6.60;99.90;;;;;;4976681;28;20535;-86
2022/12/06 06:48:27;;;;;;;12.67;9.07;;;6.60;99.90;;;;;;4977549;28;20190;-84
2022/12/06 06:50:53;;;;;;;19.90;9.77;;;6.50;99.90;;;;;;4962608;28;20334;-83
2022/12/06 06:53:19;;;;;;;14.83;8.87;;;6.50;99.90;;;;;;4974335;28;20214;-83
2022/12/06 06:55:46;;;;;;;16.30;8.93;;;6.50;99.90;;;;;;4957909;28;20184;-84
2022/12/06 06:58:13;;;;;;;14.67;9.30;;;6.50;99.90;;;;;;4975498;28;20183;-82
2022/12/06 07:00:40;;;;;;;15.23;9.43;;;6.50;99.90;;;;;;4979697;28;20151;-83
2022/12/06 07:03:09;;;;;;;16.37;9.73;;;6.40;99.90;;;;;;4980210;28;20632;-80
2022/12/06 07:05:34;;;;;;;14.30;8.93;;;6.40;99.90;;;;;;4988151;28;20167;-80
2022/12/06 07:08:00;;;;;;;12.50;9.07;;;6.30;99.90;;;;;;4996168;28;20270;-81
2022/12/06 07:10:26;;;;;;;14.90;9.00;;;6.40;99.90;;;;;;4979079;28;20175;-80
2022/12/06 07:12:54;;;;;;;14.43;9.10;;;6.40;99.90;;;;;;4984757;28;20214;-81
2022/12/06 07:15:22;;;;;;;15.90;9.67;;;6.30;99.90;;;;;;4978600;28;20198;-86
2022/12/06 07:17:52;;;;;;;13.30;9.17;;;6.20;99.90;;;;;;4957402;28;20711;-83
2022/12/06 07:20:20;;;;;;;14.17;9.83;;;6.10;99.90;;;;;;4975128;28;20176;-81
2022/12/06 07:22:45;;;;;;;18.10;9.17;;;6.10;99.90;;;;;;4991894;28;20179;-83
2022/12/06 07:25:12;;;;;;;14.63;9.50;;;6.10;99.90;;;;;;4995919;28;20175;-82
2022/12/06 07:27:38;;;;;;;13.57;8.97;;;6.00;99.90;;;;;;4980633;28;20182;-81
2022/12/06 07:30:05;;;;;;;18.70;9.67;;;6.00;99.90;;;;;;5001703;28;20226;-86
2022/12/06 07:32:36;;;;;;;15.73;9.80;;;6.00;99.90;;;;;;4985048;28;20255;-82
2022/12/06 07:35:03;;;;;;;14.93;9.47;;;6.10;99.90;;;;;;4998460;28;20167;-81
2022/12/06 07:37:29;;;;;;;16.07;9.80;;;6.20;99.90;;;;;;4996651;28;20186;-81
2022/12/06 07:39:57;;;;;;;16.80;9.60;;;6.10;99.90;;;;;;4995209;28;20195;-82
2022/12/06 07:45:13;;;;;;;19.20;9.77;;;6.20;99.90;;;;;;4997968;28;20206;-85
2022/12/06 07:47:42;;;;;;;16.70;9.80;;;6.10;99.90;;;;;;4980818;28;20171;-83
2022/12/06 07:50:11;;;;;;;15.93;9.87;;;6.20;99.90;;;;;;4980893;28;20183;-83
2022/12/06 07:52:37;;;;;;;14.47;9.50;;;6.20;99.90;;;;;;5000199;28;20698;-81
2022/12/06 07:55:05;;;;;;;27.80;19.00;;;6.30;99.90;;;;;;4999241;28;20167;-80
2022/12/06 07:57:30;;;;;;;18.17;10.87;;;6.20;99.90;;;;;;4994466;28;20171;-82
2022/12/06 07:59:56;;;;;;;15.13;10.70;;;6.40;99.90;;;;;;4985067;28;20175;-80
2022/12/06 08:02:25;;;;;;;15.67;11.13;;;6.60;99.90;;;;;;4970309;28;20585;-83
2022/12/06 08:04:52;;;;;;;18.70;10.57;;;6.50;99.90;;;;;;4978741;28;20175;-83
2022/12/06 08:07:19;;;;;;;20.93;11.17;;;6.60;99.90;;;;;;4978264;28;20160;-84
2022/12/06 08:09:44;;;;;;;13.43;9.87;;;6.90;99.90;;;;;;4977863;28;20640;-83
2022/12/06 08:12:10;;;;;;;15.50;9.97;;;6.90;99.90;;;;;;4976032;28;20223;-80
2022/12/06 08:14:36;;;;;;;17.37;10.23;;;7.00;99.90;;;;;;4984561;28;20610;-82
2022/12/06 08:17:04;;;;;;;16.33;10.57;;;7.10;99.90;;;;;;4983001;28;20519;-81
2022/12/06 08:19:32;;;;;;;16.93;10.90;;;6.90;99.90;;;;;;4983769;28;20164;-80
2022/12/06 08:22:02;;;;;;;14.80;10.77;;;6.80;99.90;;;;;;4984022;28;20175;-79
2022/12/06 08:24:29;;;;;;;16.83;11.60;;;6.70;99.90;;;;;;4963836;28;20262;-81
2022/12/06 08:26:54;;;;;;;18.10;11.53;;;6.60;99.90;;;;;;4982071;28;20175;-81
2022/12/06 08:29:22;;;;;;;14.73;11.43;;;6.70;99.90;;;;;;4984329;28;20159;-79
2022/12/06 08:31:48;;;;;;;19.00;13.03;;;6.50;99.90;;;;;;4948703;28;20212;-82
2022/12/06 08:34:14;;;;;;;21.97;13.73;;;6.50;99.90;;;;;;4982285;28;20164;-79
2022/12/06 08:36:41;;;;;;;20.50;13.70;;;6.40;99.90;;;;;;4971403;28;20210;-90
2022/12/06 08:39:13;;;;;;;22.00;14.30;;;6.30;99.90;;;;;;4990082;28;20191;-89
2022/12/06 08:41:57;;;;;;;17.73;12.77;;;6.20;99.90;;;;;;4995275;28;20183;-88
2022/12/06 08:44:42;;;;;;;24.03;13.90;;;6.30;99.90;;;;;;4991208;28;20155;-86
2022/12/06 08:47:12;;;;;;;19.33;12.90;;;6.20;99.90;;;;;;4988196;28;20187;-90
2022/12/06 08:49:37;;;;;;;22.83;12.70;;;6.30;99.90;;;;;;4994344;28;20176;-86
2022/12/06 08:52:05;;;;;;;17.27;12.50;;;6.20;99.90;;;;;;5000057;28;20190;-86
2022/12/06 08:54:34;;;;;;;19.60;11.50;;;6.30;99.90;;;;;;4984108;28;20195;-80
2022/12/06 08:57:02;;;;;;;21.13;12.63;;;6.30;99.90;;;;;;4983356;28;20174;-87
2022/12/06 08:59:27;;;;;;;18.03;11.73;;;6.00;99.90;;;;;;4996242;28;20176;-90
2022/12/06 09:02:02;;;;;;;19.00;13.10;;;6.00;99.90;;;;;;5001268;28;20195;-81
2022/12/06 09:04:27;;;;;;;18.27;11.23;;;6.30;99.90;;;;;;4984458;28;20160;-84
2022/12/06 09:10:36;;;;;;;17.53;11.40;;;6.30;99.90;;;;;;5000747;28;20253;-85
2022/12/06 09:13:04;;;;;;;16.13;11.33;;;6.30;99.90;;;;;;4999686;28;20194;-89
2022/12/06 09:15:30;;;;;;;15.13;9.83;;;6.30;99.90;;;;;;4990210;28;20191;-90
2022/12/06 09:18:05;;;;;;;16.40;10.70;;;6.50;99.90;;;;;;4991297;28;20176;-88
2022/12/06 09:20:31;;;;;;;14.60;10.07;;;6.50;99.90;;;;;;4988058;28;20194;-90
2022/12/06 09:22:57;;;;;;;17.20;11.47;;;6.60;99.90;;;;;;4990072;28;20210;-84
2022/12/06 09:25:24;;;;;;;13.30;9.37;;;6.80;99.90;;;;;;5000336;28;20175;-80
2022/12/06 09:27:53;;;;;;;14.63;9.90;;;6.90;99.90;;;;;;4997069;28;20651;-82
2022/12/06 09:30:19;;;;;;;13.57;8.93;;;7.00;99.90;;;;;;4981560;28;20186;-88
2022/12/06 09:32:44;;;;;;;13.87;9.83;;;7.00;99.90;;;;;;5007899;28;20207;-83
2022/12/06 09:35:13;;;;;;;14.80;9.17;;;7.10;99.90;;;;;;5001765;28;20689;-87
2022/12/06 09:37:39;;;;;;;13.90;9.03;;;7.10;99.90;;;;;;4983888;28;20171;-84
2022/12/06 09:40:29;;;;;;;13.43;9.53;;;7.10;99.90;;;;;;4999634;28;20210;-84
2022/12/06 09:43:17;;;;;;;15.07;9.47;;;7.30;99.90;;;;;;4998473;28;20187;-84
2022/12/06 09:46:18;;;;;;;15.30;8.97;;;7.30;99.90;;;;;;4991976;28;20168;-85
2022/12/06 09:49:02;;;;;;;9.90;7.10;;;7.40;99.90;;;;;;4952349;28;20238;-85
2022/12/06 09:51:41;;;;;;;12.37;7.50;;;7.60;99.90;;;;;;4997655;28;20209;-85
2022/12/06 09:55:02;;;;;;;13.53;7.67;;;7.80;99.90;;;;;;4981463;28;20182;-85
2022/12/06 09:57:53;;;;;;;10.57;7.00;;;8.00;99.90;;;;;;4959130;28;20191;-82
2022/12/06 10:00:22;;;;;;;13.03;7.77;;;8.10;99.90;;;;;;4982330;28;20164;-82
2022/12/06 10:03:26;;;;;;;10.30;7.43;;;8.20;99.90;;;;;;4982414;28;20175;-81
2022/12/06 10:06:04;;;;;;;14.07;9.37;;;8.30;99.90;;;;;;4989138;28;20177;-81
2022/12/06 10:08:52;;;;;;;14.90;8.10;;;8.30;99.70;;;;;;5000525;28;20656;-84
2022/12/06 10:11:47;;;;;;;15.20;7.63;;;8.30;97.80;;;;;;5009435;28;20214;-80
2022/12/06 10:14:37;;;;;;;15.73;8.93;;;8.40;94.70;;;;;;5011784;28;20262;-82
2022/12/06 10:17:27;;;;;;;9.83;6.57;;;8.40;93.20;;;;;;5017470;28;20155;-77
2022/12/06 10:20:19;;;;;;;8.57;6.13;;;8.20;94.10;;;;;;4985220;28;20175;-80
2022/12/06 10:23:42;;;;;;;10.17;6.07;;;8.20;94.30;;;;;;4995276;28;20251;-81
2022/12/06 10:26:15;;;;;;;11.13;6.90;;;8.20;94.50;;;;;;4915623;29;20178;-79
2022/12/06 10:29:16;;;;;;;12.87;6.63;;;8.30;93.20;;;;;;4993106;28;20175;-81
2022/12/06 10:32:07;;;;;;;8.00;5.23;;;8.20;93.30;;;;;;4963867;28;20254;-80
2022/12/06 10:34:48;;;;;;;7.03;4.87;;;8.20;93.10;;;;;;4994106;28;20202;-81
2022/12/06 10:37:16;;;;;;;8.07;5.43;;;8.40;90.90;;;;;;4994297;28;20193;-80
2022/12/06 10:39:59;;;;;;;10.40;5.70;;;8.30;88.50;;;;;;4994623;28;20273;-82
2022/12/06 10:42:32;;;;;;;9.50;5.47;;;8.10;89.70;;;;;;4994167;28;20175;-81
2022/12/06 10:45:01;;;;;;;9.07;5.27;;;8.10;90.30;;;;;;4976998;28;20225;-81
2022/12/06 10:47:33;;;;;;;10.40;5.87;;;8.30;90.40;;;;;;4976655;28;20171;-79
2022/12/06 10:50:18;;;;;;;9.07;5.57;;;8.20;90.40;;;;;;4994299;28;20654;-81
2022/12/06 10:53:10;;;;;;;8.03;6.10;;;8.20;92.40;;;;;;4994112;28;20209;-82
2022/12/06 10:55:59;;;;;;;10.03;6.10;;;8.20;91.40;;;;;;4977588;28;20277;-80
2022/12/06 10:58:29;;;;;;;11.17;7.20;;;8.20;91.30;;;;;;4994536;28;20167;-80
2022/12/06 11:00:57;;;;;;;8.83;7.07;;;8.30;90.00;;;;;;4993802;28;20206;-82
2022/12/06 11:03:30;;;;;;;11.83;8.07;;;8.50;87.00;;;;;;4993498;28;20171;-81
2022/12/06 11:06:01;;;;;;;10.13;7.17;;;8.60;83.30;;;;;;4993831;28;20166;-82
2022/12/06 11:08:35;;;;;;;12.00;7.63;;;8.70;81.60;;;;;;4993827;28;20191;-81
2022/12/06 11:11:04;;;;;;;12.67;7.90;;;8.60;82.90;;;;;;4993713;28;20210;-80
2022/12/06 11:13:46;;;;;;;10.87;8.53;;;8.60;83.70;;;;;;4993860;28;20205;-82
2022/12/06 11:16:20;;;;;;;12.07;7.37;;;8.70;83.00;;;;;;4992960;28;20182;-80
2022/12/06 11:18:48;;;;;;;11.37;8.17;;;8.70;83.60;;;;;;4994016;28;20253;-82
2022/12/06 11:21:33;;;;;;;9.90;7.73;;;8.70;85.80;;;;;;4993993;28;20174;-81
2022/12/06 11:24:08;;;;;;;11.93;8.47;;;8.60;85.20;;;;;;4993970;28;20166;-81
2022/12/06 11:26:45;;;;;;;15.17;7.97;;;8.50;83.70;;;;;;4987843;28;20593;-86
2022/12/06 11:29:13;;;;;;;14.23;8.60;;;8.60;84.00;;;;;;4996682;28;20605;-87
2022/12/06 11:31:47;;;;;;;11.97;9.87;;;8.60;82.00;;;;;;4996969;28;20274;-82
2022/12/06 11:34:22;;;;;;;14.40;11.27;;;8.60;79.20;;;;;;4997421;28;20175;-85
2022/12/06 11:36:53;;;;;;;14.40;11.10;;;8.50;80.10;;;;;;4996552;28;20194;-85
2022/12/06 11:39:19;;;;;;;11.07;9.93;;;8.50;81.30;;;;;;5012800;28;20246;-83
2022/12/06 11:41:49;;;;;;;15.63;12.00;;;8.60;78.40;;;;;;5017661;28;20246;-83
2022/12/06 11:44:24;;;;;;;17.80;12.03;;;8.70;80.40;;;;;;5017972;28;20215;-85
2022/12/06 11:47:01;;;;;;;10.47;9.07;;;8.70;81.20;;;;;;5007188;28;20155;-82
2022/12/06 11:49:34;;;;;;;12.67;10.97;;;8.80;79.60;;;;;;4983322;28;20171;-84
2022/12/06 11:52:08;;;;;;;12.70;9.77;;;9.00;77.10;;;;;;5001435;28;20203;-85
2022/12/06 11:54:53;;;;;;;12.57;9.30;;;8.80;73.90;;;;;;4980593;28;20178;-79
2022/12/06 11:57:22;;;;;;;12.97;9.00;;;8.70;75.00;;;;;;4976621;28;20168;-84
2022/12/06 12:00:10;;;;;;;10.63;9.50;;;8.80;76.60;;;;;;4989347;28;20195;-86
2022/12/06 12:02:36;;;;;;;10.60;8.80;;;8.80;73.40;;;;;;4980432;28;20171;-86
2022/12/06 12:05:25;;;;;;;13.37;8.93;;;8.90;73.00;;;;;;4962387;28;20246;-86
2022/12/06 12:07:57;;;;;;;12.37;9.13;;;8.80;73.30;;;;;;4975837;28;20662;-83
2022/12/06 12:10:38;;;;;;;10.53;8.83;;;9.00;74.50;;;;;;4975499;28;20190;-81
2022/12/06 12:15:59;;;;;;;10.00;7.43;;;9.00;72.50;;;;;;4984888;28;20203;-83
2022/12/06 12:18:36;;;;;;;8.00;4.50;;;9.10;72.10;;;;;;4980754;28;20168;-82
2022/12/06 12:21:06;;;;;;;9.30;5.60;;;8.70;64.10;;;;;;4961641;28;20180;-84
2022/12/06 12:23:37;;;;;;;9.17;5.73;;;8.80;65.60;;;;;;4979692;28;20219;-87
2022/12/06 12:26:20;;;;;;;7.90;4.90;;;8.80;64.90;;;;;;4982396;28;20179;-85
2022/12/06 12:29:07;;;;;;;9.73;5.93;;;8.70;63.10;;;;;;5000036;28;20178;-86
2022/12/06 12:31:54;;;;;;;8.70;5.57;;;8.70;65.00;;;;;;4997050;28;20279;-84
2022/12/06 12:34:24;;;;;;;9.47;4.43;;;8.70;62.90;;;;;;4995470;28;20178;-86
2022/12/06 12:37:01;;;;;;;9.57;5.70;;;8.70;58.60;;;;;;4998073;28;20174;-87
2022/12/06 12:39:43;;;;;;;7.90;5.17;;;8.80;56.60;;;;;;5003387;28;20199;-87
2022/12/06 12:42:30;;;;;;;10.20;5.87;;;8.80;56.00;;;;;;5024539;28;20230;-84
2022/12/06 12:44:59;;;;;;;6.90;4.50;;;8.90;55.60;;;;;;5023754;28;20185;-84
2022/12/06 12:47:25;;;;;;;8.13;5.17;;;9.10;49.90;;;;;;5000075;28;20202;-85
2022/12/06 12:50:22;;;;;;;9.90;4.87;;;8.90;51.00;;;;;;5017246;28;20635;-82
2022/12/06 12:52:51;;;;;;;11.40;4.90;;;8.90;51.30;;;;;;5001629;28;20218;-85
2022/12/06 12:55:26;;;;;;;6.63;3.47;;;9.10;45.10;;;;;;4994735;28;20234;-84
2022/12/06 12:57:54;;;;;;;7.67;4.17;;;8.70;37.20;;;;;;4979541;28;20194;-83
2022/12/06 13:00:23;;;;;;;11.93;4.03;;;8.80;40.50;;;;;;4986689;28;20175;-86
2022/12/06 13:03:00;;;;;;;6.70;3.70;;;8.90;38.40;;;;;;5004277;28;20167;-87
2022/12/06 13:05:48;;;;;;;9.33;3.70;;;9.10;35.60;;;;;;5015424;28;20662;-85
2022/12/06 13:08:35;;;;;;;9.23;3.90;;;9.10;32.00;;;;;;4992130;28;20187;-84
2022/12/06 13:11:04;;;;;;;5.57;3.53;;;9.00;31.50;;;;;;5000101;28;20282;-83
2022/12/06 13:13:42;;;;;;;7.00;3.67;;;8.80;32.70;;;;;;5003783;28;20181;-85
2022/12/06 13:16:21;;;;;;;5.20;3.20;;;8.90;35.10;;;;;;5008149;28;20198;-81
2022/12/06 13:18:51;;;;;;;7.80;3.70;;;8.90;34.60;;;;;;4982472;28;20197;-87
2022/12/06 13:21:22;;;;;;;7.10;4.37;;;9.10;34.80;;;;;;4998552;28;20258;-85
2022/12/06 13:23:54;;;;;;;8.80;4.90;;;9.10;33.90;;;;;;5000697;28;20558;-81
2022/12/06 13:26:19;;;;;;;7.23;4.10;;;9.20;34.10;;;;;;4993909;28;20203;-85
2022/12/06 13:28:56;;;;;;;9.60;4.13;;;9.10;31.40;;;;;;4990847;28;20175;-87
2022/12/06 13:31:29;;;;;;;8.57;4.23;;;9.20;29.20;;;;;;4999860;28;20198;-87
2022/12/06 13:34:15;;;;;;;7.87;5.10;;;9.30;28.40;;;;;;5000913;28;20209;-86
2022/12/06 13:36:41;;;;;;;8.90;4.63;;;9.10;32.70;;;;;;4999608;28;20216;-86